Pittsburgh, Pennsylvania
Traffic Map
Current Weather Conditions
Pittsburgh, Pennsylvania
Scattered Clouds
Scattered Clouds
77°
Feels Like: 79°
Wind Chill: 77° Ceiling: Unl
Heat Index: 79° Visibility: 10mi
Dew Point: 57° Wind: 10mph
Humidity: 50% Direction: 230° (SW)
Pressure: 30.09in Gusts: 0mph
Raw Report DataKAGC 312153Z 23009KT 10SM FEW050 SCT090 25/14 A3009 RMK AO2 SLP190 T02500139
Traffic Incident Summary
Active as of:
Severity:
Category:
InformationThere was an issue retrieving the traffic information for this location. Please try a different location or try again shortly.
Advertisements
Track Severe Weather on mobile